Caledon, United Kingdom
Current Conditions -  °F | °C
As of 11:20 AM on Friday 31 Oct 2014 (Local Time) from EGAA Reporting Station
Few Clouds Few Clouds  
Wind Chill: 63°   Ceiling: Unl
Heat Index: 63°   Visibility: 6mi
Dew Point: 55°   Wind: 16mph
Humidity: 77%   Direction: 180°S
Pressure: 29.65"   Gusts: 28mph
Location:  54.35°N, 6.84°W
Report Text: EGAA 311120Z 18014G24KT 9999 FEW021 17/13 Q1004
Loading
Personal Weather Stations






























Interactive Weather Map
Tropical Storm Tracking
New forecast layout! Learn more

10-Day Weather Forecast

Advertisements
Track Severe Weather on mobile